Time;durP1;ratioP1;P1;durP2;ratioP2;P2;SDS_P1;SDS_P2;PMS_P1;PMS_P2;Temp;Humidity;BMP_temperature;BMP_pressure;BME280_temperature;BME280_humidity;BME280_pressure;Samples;Min_cycle;Max_cycle;Signal;HPM_P1;HPM_P2
2022/08/22 00:00:24;;;;;;;6.53;2.10;;;20.30;93.30;;;;;;5094311;28;20035;-68
2022/08/22 00:03:19;;;;;;;4.68;2.03;;;20.30;93.40;;;;;;5094355;28;20103;-68
2022/08/22 00:06:06;;;;;;;7.95;2.67;;;20.30;93.50;;;;;;5065054;28;20051;-68
2022/08/22 00:08:46;;;;;;;5.55;2.13;;;20.20;93.60;;;;;;5094260;28;20020;-68
2022/08/22 00:11:40;;;;;;;8.55;2.47;;;20.20;93.70;;;;;;5094240;28;20472;-68
2022/08/22 00:14:41;;;;;;;7.45;2.65;;;20.20;93.80;;;;;;5094487;28;20107;-68
2022/08/22 00:17:33;;;;;;;5.03;2.10;;;20.20;93.90;;;;;;5092365;28;20040;-68
2022/08/22 00:20:08;;;;;;;7.20;2.67;;;20.10;93.90;;;;;;5094404;28;20032;-68
2022/08/22 00:22:39;;;;;;;5.97;2.40;;;20.10;94.00;;;;;;5094351;28;20049;-68
2022/08/22 00:25:36;;;;;;;6.13;2.40;;;20.00;94.10;;;;;;5093051;28;20082;-68
2022/08/22 00:28:05;;;;;;;7.72;2.22;;;20.00;94.20;;;;;;5093809;28;20039;-68
2022/08/22 00:30:40;;;;;;;7.22;2.67;;;20.00;94.30;;;;;;5094464;28;20078;-68
2022/08/22 00:33:33;;;;;;;8.13;2.80;;;20.00;94.40;;;;;;5093998;28;20020;-68
2022/08/22 00:36:11;;;;;;;6.75;2.38;;;19.90;94.40;;;;;;5093324;28;20456;-68
2022/08/22 00:38:47;;;;;;;7.95;2.28;;;19.90;94.50;;;;;;5093619;28;20136;-68
2022/08/22 00:41:54;;;;;;;5.35;2.38;;;19.90;94.60;;;;;;5093589;28;20103;-69
2022/08/22 00:44:51;;;;;;;8.07;2.58;;;19.90;94.60;;;;;;5093577;28;20028;-68
2022/08/22 00:47:26;;;;;;;6.30;2.15;;;19.80;94.80;;;;;;5093464;28;20040;-68
2022/08/22 00:50:01;;;;;;;7.18;2.60;;;19.90;94.80;;;;;;5093202;28;20026;-68
2022/08/22 00:52:44;;;;;;;5.05;2.63;;;19.90;94.90;;;;;;5093389;28;20032;-68
2022/08/22 00:55:25;;;;;;;6.82;2.40;;;19.80;94.90;;;;;;5092008;28;20024;-68
2022/08/22 00:58:17;;;;;;;8.20;2.72;;;19.80;94.90;;;;;;5093191;28;20036;-68
2022/08/22 01:00:57;;;;;;;5.68;2.33;;;19.80;95.00;;;;;;5093008;28;20321;-68
2022/08/22 01:03:28;;;;;;;4.82;2.40;;;19.80;95.10;;;;;;5093520;28;20027;-68
2022/08/22 01:06:18;;;;;;;6.75;2.28;;;19.80;95.10;;;;;;5093285;28;20028;-68
2022/08/22 01:09:03;;;;;;;6.28;2.08;;;19.70;95.10;;;;;;5093419;28;20107;-68
2022/08/22 01:11:50;;;;;;;6.22;1.90;;;19.70;95.20;;;;;;5093259;28;20085;-69
2022/08/22 01:14:48;;;;;;;6.47;2.35;;;19.70;95.30;;;;;;5093481;28;20553;-68
2022/08/22 01:17:43;;;;;;;6.82;2.30;;;19.70;95.30;;;;;;5092680;28;20489;-68
2022/08/22 01:20:33;;;;;;;7.63;2.42;;;19.70;95.30;;;;;;5092752;28;20059;-68
2022/08/22 01:23:18;;;;;;;7.28;2.90;;;19.70;95.40;;;;;;5093300;28;20389;-68
2022/08/22 01:26:19;;;;;;;5.28;1.95;;;19.70;95.40;;;;;;5092192;28;20053;-68
2022/08/22 01:28:54;;;;;;;5.32;2.17;;;19.70;95.50;;;;;;5060858;22;20075;-69
2022/08/22 01:32:03;;;;;;;5.93;2.60;;;19.70;95.50;;;;;;5071981;28;20025;-69
2022/08/22 01:34:58;;;;;;;6.85;2.67;;;19.60;95.50;;;;;;5072144;28;20052;-69
2022/08/22 01:37:52;;;;;;;6.68;2.33;;;19.60;95.70;;;;;;5071963;28;20040;-69
2022/08/22 01:40:39;;;;;;;7.15;2.10;;;19.50;95.80;;;;;;5071867;28;20063;-69
2022/08/22 01:43:20;;;;;;;7.68;2.30;;;19.60;95.80;;;;;;5072303;28;20408;-69
2022/08/22 01:45:58;;;;;;;8.20;2.83;;;19.60;95.90;;;;;;5071778;28;20556;-69
2022/08/22 01:48:44;;;;;;;6.90;2.25;;;19.60;95.90;;;;;;5071890;28;20059;-69
2022/08/22 01:51:16;;;;;;;6.63;2.38;;;19.50;95.90;;;;;;5071866;28;20032;-69
2022/08/22 01:53:47;;;;;;;5.50;2.20;;;19.50;95.90;;;;;;5071908;28;20405;-69
2022/08/22 01:56:18;;;;;;;8.23;2.55;;;19.50;96.00;;;;;;5071981;28;20032;-69
2022/08/22 01:58:58;;;;;;;7.75;2.28;;;19.50;96.10;;;;;;5071653;28;20393;-69
2022/08/22 02:01:48;;;;;;;7.03;2.42;;;19.50;96.20;;;;;;5071497;28;20028;-69
2022/08/22 02:04:35;;;;;;;9.95;2.60;;;19.50;96.20;;;;;;5071529;28;20029;-70
2022/08/22 02:07:04;;;;;;;7.40;2.65;;;19.50;96.20;;;;;;5071169;28;20124;-69
2022/08/22 02:09:43;;;;;;;5.93;2.47;;;19.50;96.20;;;;;;5071252;28;20054;-69
2022/08/22 02:12:17;;;;;;;7.28;2.50;;;19.50;96.20;;;;;;5071378;28;20733;-69
2022/08/22 02:15:03;;;;;;;8.40;2.78;;;19.50;96.30;;;;;;5071349;28;20079;-69
2022/08/22 02:17:33;;;;;;;6.15;2.53;;;19.50;96.30;;;;;;5070709;28;20033;-69
2022/08/22 02:20:19;;;;;;;4.88;2.40;;;19.40;96.40;;;;;;5069780;28;20037;-68
2022/08/22 02:23:21;;;;;;;7.25;2.63;;;19.40;96.50;;;;;;5071074;28;20107;-69
2022/08/22 02:26:06;;;;;;;8.77;2.53;;;19.40;96.60;;;;;;5067327;28;20420;-69
2022/08/22 02:28:47;;;;;;;5.85;2.50;;;19.40;96.70;;;;;;5070868;28;20031;-69
2022/08/22 02:31:19;;;;;;;10.27;2.92;;;19.40;96.70;;;;;;5069698;28;20504;-69
2022/08/22 02:33:44;;;;;;;7.03;2.40;;;19.40;96.70;;;;;;5071314;28;20245;-69
2022/08/22 02:36:21;;;;;;;10.18;3.10;;;19.40;96.70;;;;;;5070877;28;20070;-69
2022/08/22 02:39:16;;;;;;;8.43;2.97;;;19.40;96.80;;;;;;5070985;28;20024;-69
2022/08/22 02:42:10;;;;;;;8.98;2.95;;;19.40;96.90;;;;;;5070540;28;20067;-69
2022/08/22 02:44:50;;;;;;;7.43;2.53;;;19.40;96.90;;;;;;5071570;28;20028;-69
2022/08/22 02:48:11;;;;;;;8.45;2.88;;;19.40;97.00;;;;;;5071099;28;20028;-69
2022/08/22 02:50:43;;;;;;;7.60;2.42;;;19.40;97.10;;;;;;5030679;28;20032;-69
2022/08/22 02:53:12;;;;;;;7.25;2.50;;;19.30;97.10;;;;;;5070869;28;20055;-69
2022/08/22 02:55:51;;;;;;;;;;;19.40;97.20;;;;;;5071057;28;20025;-69
2022/08/22 02:58:29;;;;;;;8.25;2.58;;;19.30;97.20;;;;;;5070817;28;20280;-69
2022/08/22 03:01:24;;;;;;;10.02;3.25;;;19.20;97.40;;;;;;5070617;28;20028;-69
2022/08/22 03:03:51;;;;;;;6.80;2.78;;;19.20;97.50;;;;;;5069416;28;20060;-69
2022/08/22 03:06:40;;;;;;;6.30;3.00;;;19.20;97.80;;;;;;5070665;28;20047;-69
2022/08/22 03:09:22;;;;;;;9.02;3.22;;;19.20;97.60;;;;;;5070544;28;20035;-69
2022/08/22 03:12:03;;;;;;;7.35;3.35;;;19.20;97.70;;;;;;5069606;28;20485;-69
2022/08/22 03:14:55;;;;;;;10.77;3.55;;;19.20;97.70;;;;;;5070458;28;20028;-69
2022/08/22 03:17:44;;;;;;;10.18;3.40;;;19.10;97.80;;;;;;5034090;28;20037;-69
2022/08/22 03:20:14;;;;;;;9.88;3.25;;;19.10;97.90;;;;;;5070382;28;20044;-69
2022/08/22 03:23:03;;;;;;;8.52;2.75;;;19.10;98.00;;;;;;5070574;28;20051;-69
2022/08/22 03:25:38;;;;;;;8.02;3.38;;;19.10;98.10;;;;;;5070816;28;20028;-69
2022/08/22 03:28:13;;;;;;;6.97;3.05;;;19.20;98.20;;;;;;5070899;28;20024;-69
2022/08/22 03:30:55;;;;;;;6.10;3.03;;;19.10;98.20;;;;;;5074322;28;20036;-69
2022/08/22 03:33:25;;;;;;;9.60;3.42;;;19.10;98.30;;;;;;5074666;28;20028;-69
2022/08/22 03:36:13;;;;;;;7.90;3.30;;;19.10;98.30;;;;;;5074310;28;20660;-69
2022/08/22 03:38:52;;;;;;;9.70;3.50;;;19.20;98.40;;;;;;5074006;28;20033;-69
2022/08/22 03:41:42;;;;;;;5.47;3.10;;;19.20;98.40;;;;;;5074363;28;20033;-69
2022/08/22 03:44:14;;;;;;;8.77;3.25;;;19.10;98.50;;;;;;5074500;28;20404;-69
2022/08/22 03:46:48;;;;;;;7.88;3.20;;;19.20;98.50;;;;;;5072879;28;20042;-69
2022/08/22 03:49:45;;;;;;;8.60;3.50;;;19.20;98.60;;;;;;5075033;28;20422;-69
2022/08/22 03:53:08;;;;;;;9.43;3.50;;;19.20;98.60;;;;;;5075226;28;20028;-69
2022/08/22 03:56:11;;;;;;;9.15;3.88;;;19.20;98.70;;;;;;5074784;28;20090;-69
2022/08/22 03:59:03;;;;;;;10.40;3.90;;;19.20;98.70;;;;;;5074496;28;20492;-69
2022/08/22 04:01:50;;;;;;;6.75;3.22;;;19.30;98.80;;;;;;5036724;28;20086;-69
2022/08/22 04:04:50;;;;;;;6.82;3.38;;;19.30;98.90;;;;;;5075052;28;20021;-69
2022/08/22 04:07:58;;;;;;;8.38;3.40;;;19.20;98.90;;;;;;5073831;28;20472;-69
2022/08/22 04:10:34;;;;;;;;;;;19.20;99.00;;;;;;5074013;28;20059;-68
2022/08/22 04:13:26;;;;;;;11.05;3.97;;;19.30;99.00;;;;;;5074052;28;19944;-69
2022/08/22 04:16:12;;;;;;;7.82;3.35;;;19.30;99.00;;;;;;5062748;28;20037;-70
2022/08/22 04:19:04;;;;;;;8.85;3.85;;;19.30;99.10;;;;;;5071453;28;20032;-69
2022/08/22 04:21:57;;;;;;;7.53;3.50;;;19.20;99.10;;;;;;5072652;28;20111;-70
2022/08/22 04:24:42;;;;;;;11.98;3.83;;;19.20;99.30;;;;;;5072629;28;20050;-71
2022/08/22 04:27:17;;;;;;;9.55;3.90;;;19.20;99.30;;;;;;5072234;28;20180;-69
2022/08/22 04:29:51;;;;;;;10.05;4.00;;;19.20;99.30;;;;;;5072258;28;20055;-70
2022/08/22 04:32:35;;;;;;;7.72;3.42;;;19.20;99.30;;;;;;5072272;28;20103;-71
2022/08/22 04:35:22;;;;;;;9.18;3.42;;;19.20;99.40;;;;;;5072703;28;20111;-69
2022/08/22 04:38:21;;;;;;;13.60;3.78;;;19.20;99.40;;;;;;5072121;28;20028;-69
2022/08/22 04:40:49;;;;;;;9.20;4.07;;;19.20;99.60;;;;;;5071268;28;20032;-69
2022/08/22 04:43:40;;;;;;;9.85;3.97;;;19.10;99.70;;;;;;5072350;28;20103;-69
2022/08/22 04:46:22;;;;;;;8.98;3.70;;;19.10;99.70;;;;;;5070787;28;20036;-69
2022/08/22 04:49:12;;;;;;;10.50;3.90;;;19.10;99.70;;;;;;5072059;28;20037;-68
2022/08/22 04:51:45;;;;;;;8.85;3.90;;;19.10;99.80;;;;;;5072070;28;20028;-69
2022/08/22 04:54:36;;;;;;;11.65;4.10;;;19.10;99.90;;;;;;5072433;28;20115;-69
2022/08/22 04:57:33;;;;;;;11.48;4.10;;;19.20;99.90;;;;;;5072072;28;20032;-69
2022/08/22 05:00:09;;;;;;;10.27;3.83;;;19.10;99.90;;;;;;5072191;28;20048;-69
2022/08/22 05:02:38;;;;;;;10.18;3.78;;;19.20;99.90;;;;;;5071839;28;20024;-69
2022/08/22 05:05:11;;;;;;;10.93;4.57;;;19.20;99.90;;;;;;5072801;28;20306;-69
2022/08/22 05:07:54;;;;;;;8.93;4.20;;;19.20;99.90;;;;;;5072217;28;20440;-69
2022/08/22 05:10:34;;;;;;;16.52;5.18;;;19.20;99.90;;;;;;5071929;28;20028;-69
2022/08/22 05:13:05;;;;;;;9.15;4.28;;;19.30;99.90;;;;;;5072062;28;20017;-70
2022/08/22 05:15:36;;;;;;;8.23;3.90;;;19.30;99.90;;;;;;5070214;28;20038;-69
2022/08/22 05:18:08;;;;;;;8.07;3.63;;;19.30;99.90;;;;;;5072051;28;20033;-71
2022/08/22 05:20:38;;;;;;;12.15;4.32;;;19.20;99.90;;;;;;5071278;28;20028;-71
2022/08/22 05:23:23;;;;;;;11.63;4.25;;;19.30;99.90;;;;;;5069562;28;20028;-70
2022/08/22 05:25:55;;;;;;;13.35;4.55;;;19.30;99.90;;;;;;5064659;28;20039;-71
2022/08/22 05:28:32;;;;;;;9.05;4.35;;;19.30;99.90;;;;;;5069906;28;20029;-71
2022/08/22 05:30:59;;;;;;;14.20;4.60;;;19.40;99.90;;;;;;5068255;28;20080;-71
2022/08/22 05:33:40;;;;;;;10.55;4.50;;;19.40;99.90;;;;;;5070025;28;20456;-71
2022/08/22 05:36:08;;;;;;;11.32;4.65;;;19.40;99.90;;;;;;5070057;28;20025;-71
2022/08/22 05:38:40;;;;;;;10.85;4.60;;;19.50;99.90;;;;;;5070336;28;20094;-71
2022/08/22 05:41:10;;;;;;;10.48;4.80;;;19.50;99.90;;;;;;5071048;28;20123;-69
2022/08/22 05:43:41;;;;;;;13.25;4.60;;;19.50;99.90;;;;;;5071081;28;20048;-71
2022/08/22 05:46:17;;;;;;;11.40;4.97;;;19.50;99.90;;;;;;5085934;28;20032;-70
2022/08/22 05:48:55;;;;;;;12.07;4.70;;;19.50;99.90;;;;;;5070838;28;20033;-70
2022/08/22 05:51:37;;;;;;;11.80;4.70;;;19.50;99.90;;;;;;5069556;28;20049;-70
2022/08/22 05:54:13;;;;;;;9.30;4.65;;;19.50;99.90;;;;;;5071032;28;20024;-71
2022/08/22 05:56:48;;;;;;;12.95;5.82;;;19.60;99.90;;;;;;5070322;28;20037;-70
2022/08/22 05:59:24;;;;;;;10.48;4.47;;;19.60;99.90;;;;;;5070482;28;20044;-70
2022/08/22 06:02:00;;;;;;;8.80;4.38;;;19.60;99.90;;;;;;5070142;28;20406;-71
2022/08/22 06:04:33;;;;;;;13.68;5.80;;;19.60;99.90;;;;;;5069341;28;20107;-69
2022/08/22 06:07:19;;;;;;;11.50;5.18;;;19.70;99.90;;;;;;5068818;28;20036;-71
2022/08/22 06:09:45;;;;;;;8.32;4.68;;;19.70;99.90;;;;;;5070015;28;20037;-69
2022/08/22 06:12:34;;;;;;;10.18;4.30;;;19.80;99.90;;;;;;5070085;28;20034;-68
2022/08/22 06:15:14;;;;;;;14.13;5.38;;;19.80;99.90;;;;;;5070365;28;20032;-70
2022/08/22 06:17:49;;;;;;;11.88;5.13;;;19.90;99.90;;;;;;5069064;28;20101;-69
2022/08/22 06:20:21;;;;;;;10.20;5.40;;;19.90;99.90;;;;;;5069739;28;20526;-69
2022/08/22 06:22:53;;;;;;;12.05;5.43;;;20.00;99.90;;;;;;5070222;28;20099;-69
2022/08/22 06:25:28;;;;;;;11.63;5.95;;;20.00;99.90;;;;;;5070027;28;20123;-69
2022/08/22 06:27:56;;;;;;;12.10;5.47;;;20.00;99.90;;;;;;5069626;28;20037;-69
2022/08/22 06:30:25;;;;;;;10.45;4.68;;;20.00;99.80;;;;;;5068394;28;20408;-69
2022/08/22 06:32:54;;;;;;;9.30;5.43;;;20.10;99.80;;;;;;5070232;28;20029;-69
2022/08/22 06:36:29;;;;;;;9.90;5.30;;;20.10;99.80;;;;;;5070083;28;20548;-69
2022/08/22 06:38:25;;;;;;;13.65;6.32;;;20.10;99.90;;;;;;5070345;28;20038;-69
2022/08/22 06:40:53;;;;;;;15.20;6.05;;;20.20;99.70;;;;;;5069604;28;20029;-69
2022/08/22 06:43:21;;;;;;;9.77;4.78;;;20.20;99.70;;;;;;5070243;28;20028;-70
2022/08/22 06:45:48;;;;;;;12.40;5.85;;;20.30;99.60;;;;;;5069307;28;20024;-69
2022/08/22 06:48:19;;;;;;;11.30;5.28;;;20.30;99.50;;;;;;5069533;28;20028;-70
2022/08/22 06:50:50;;;;;;;12.93;5.70;;;20.40;99.40;;;;;;5069200;28;20029;-68
2022/08/22 06:53:37;;;;;;;10.48;5.50;;;20.40;99.30;;;;;;5069798;28;20449;-70
2022/08/22 06:56:06;;;;;;;9.95;5.55;;;20.50;99.20;;;;;;5069743;28;20107;-68
2022/08/22 06:58:39;;;;;;;9.27;4.95;;;20.50;99.20;;;;;;5069570;28;20032;-68
2022/08/22 07:01:15;;;;;;;10.65;4.72;;;20.50;99.20;;;;;;5069186;28;20515;-68
2022/08/22 07:03:48;;;;;;;14.60;5.32;;;20.50;99.30;;;;;;5070007;28;20051;-69
2022/08/22 07:06:19;;;;;;;9.93;5.22;;;20.60;99.30;;;;;;5068481;28;20028;-68
2022/08/22 07:08:52;;;;;;;12.30;6.15;;;20.60;99.30;;;;;;5069957;28;20031;-68
2022/08/22 07:11:24;;;;;;;12.73;5.85;;;20.60;98.80;;;;;;5070157;28;20028;-67
2022/08/22 07:13:55;;;;;;;12.45;6.20;;;20.60;98.80;;;;;;5068505;28;20089;-68
2022/08/22 07:16:29;;;;;;;13.98;6.60;;;20.60;98.80;;;;;;5068999;28;20032;-68
2022/08/22 07:18:54;;;;;;;14.13;6.72;;;20.60;98.90;;;;;;5069745;28;20425;-68
2022/08/22 07:21:42;;;;;;;15.13;6.70;;;20.70;98.80;;;;;;5069549;28;20103;-68
2022/08/22 07:24:10;;;;;;;14.38;6.28;;;20.70;99.20;;;;;;5069537;28;20025;-70
2022/08/22 07:27:02;;;;;;;10.93;5.80;;;20.70;99.20;;;;;;5068926;28;20062;-70
2022/08/22 07:29:43;;;;;;;18.77;7.80;;;20.80;99.90;;;;;;5081154;22;20505;-83
2022/08/22 07:32:20;;;;;;;13.52;6.88;;;20.80;99.90;;;;;;5046512;28;20029;-82
2022/08/22 07:35:09;;;;;;;11.35;6.05;;;20.80;99.90;;;;;;5048861;28;20043;-83
2022/08/22 07:37:43;;;;;;;13.27;7.20;;;20.90;99.90;;;;;;5059220;28;20036;-84
2022/08/22 07:40:28;;;;;;;15.73;7.22;;;20.90;99.90;;;;;;5044586;28;20056;-82
2022/08/22 07:43:22;;;;;;;13.75;6.38;;;20.90;99.90;;;;;;5067610;28;20029;-82
2022/08/22 07:45:51;;;;;;;13.63;6.22;;;21.00;99.90;;;;;;5067325;28;20031;-84
2022/08/22 07:48:35;;;;;;;14.40;6.13;;;21.00;98.90;;;;;;5066798;28;20036;-85
2022/08/22 07:51:11;;;;;;;9.88;5.90;;;21.00;99.00;;;;;;5050159;28;20438;-84
2022/08/22 07:54:02;;;;;;;10.95;4.97;;;21.10;98.80;;;;;;5067922;28;20025;-89
2022/08/22 07:56:35;;;;;;;13.25;5.38;;;21.10;98.40;;;;;;5067926;28;20462;-83
2022/08/22 07:59:18;;;;;;;9.93;4.45;;;21.10;98.40;;;;;;5068586;28;20094;-83
2022/08/22 08:01:47;;;;;;;6.28;3.65;;;21.20;98.40;;;;;;5067746;28;20413;-83
2022/08/22 08:04:27;;;;;;;12.15;5.45;;;21.20;98.70;;;;;;5067584;28;20522;-83
2022/08/22 08:06:57;;;;;;;13.05;5.00;;;21.20;97.90;;;;;;5067737;28;20028;-83
2022/08/22 08:09:28;;;;;;;9.23;3.50;;;21.30;97.80;;;;;;5068128;28;20088;-83
2022/08/22 08:11:54;;;;;;;11.80;5.00;;;21.30;98.00;;;;;;5068274;28;20025;-83
2022/08/22 08:14:22;;;;;;;8.48;4.03;;;21.30;98.00;;;;;;5050141;28;20174;-83
2022/08/22 08:17:02;;;;;;;10.10;4.35;;;21.30;98.10;;;;;;5071146;28;20039;-84
2022/08/22 08:19:34;;;;;;;9.80;4.18;;;21.30;99.00;;;;;;5072296;28;20451;-83
2022/08/22 08:22:01;;;;;;;12.40;4.47;;;21.40;98.20;;;;;;5072414;28;20041;-83
2022/08/22 08:24:34;;;;;;;9.23;3.58;;;21.40;97.30;;;;;;5072692;28;20059;-80
2022/08/22 08:30:04;;;;;;;8.30;3.78;;;21.50;98.20;;;;;;5071717;28;20033;-83
2022/08/22 08:32:35;;;;;;;8.23;3.53;;;21.50;97.60;;;;;;5071510;28;20029;-83
2022/08/22 08:35:19;;;;;;;10.18;3.33;;;21.50;97.90;;;;;;5072141;28;20111;-83
2022/08/22 08:37:55;;;;;;;9.43;3.50;;;21.50;97.50;;;;;;5071494;28;20099;-83
2022/08/22 08:40:30;;;;;;;8.02;3.22;;;21.60;96.40;;;;;;5071685;28;20104;-81
2022/08/22 08:43:26;;;;;;;8.65;3.40;;;21.60;96.40;;;;;;5053788;28;20033;-83
2022/08/22 08:46:01;;;;;;;14.05;3.67;;;21.60;96.40;;;;;;5070857;28;20075;-83
2022/08/22 08:48:51;;;;;;;8.02;3.20;;;21.50;95.70;;;;;;5071930;28;20059;-83
2022/08/22 08:51:40;;;;;;;10.35;3.55;;;21.50;96.50;;;;;;5071861;28;20115;-82
2022/08/22 08:54:33;;;;;;;7.22;2.83;;;21.50;95.00;;;;;;5071648;28;20107;-82
2022/08/22 08:57:09;;;;;;;9.68;3.13;;;21.50;95.80;;;;;;5071308;28;20037;-84
2022/08/22 08:59:37;;;;;;;8.48;2.97;;;21.50;96.70;;;;;;5071107;28;20028;-82
2022/08/22 09:02:40;;;;;;;6.63;2.60;;;21.40;96.40;;;;;;5070798;28;20769;-83
2022/08/22 09:05:37;;;;;;;6.50;2.35;;;21.50;95.30;;;;;;5053515;28;20483;-83
2022/08/22 09:08:26;;;;;;;9.63;2.88;;;21.50;95.00;;;;;;5053515;28;20090;-83
2022/08/22 09:11:03;;;;;;;10.30;2.47;;;21.50;94.10;;;;;;5062492;28;20102;-80
2022/08/22 09:13:40;;;;;;;7.63;2.50;;;21.60;93.00;;;;;;5071691;28;20062;-83
2022/08/22 09:16:12;;;;;;;11.02;3.45;;;21.70;93.20;;;;;;5069769;28;20477;-83
2022/08/22 09:19:08;;;;;;;6.85;2.97;;;21.80;92.70;;;;;;5071200;28;20048;-83
2022/08/22 09:21:42;;;;;;;6.05;2.15;;;21.80;92.70;;;;;;5053015;28;20056;-83
2022/08/22 09:24:32;;;;;;;8.13;2.70;;;21.80;93.00;;;;;;5071176;28;20039;-84
2022/08/22 09:27:04;;;;;;;6.25;2.50;;;21.80;92.50;;;;;;5070608;28;20032;-81
2022/08/22 09:29:43;;;;;;;7.93;2.83;;;21.90;92.70;;;;;;5069912;28;20029;-79
2022/08/22 09:32:37;;;;;;;7.60;2.70;;;21.90;92.40;;;;;;5070207;28;20059;-80
2022/08/22 09:35:24;;;;;;;9.27;2.42;;;21.90;92.00;;;;;;5052942;28;20024;-77
2022/08/22 09:38:24;;;;;;;9.93;2.40;;;21.90;92.60;;;;;;5070055;28;20036;-79
2022/08/22 09:41:15;;;;;;;6.28;2.38;;;22.00;91.80;;;;;;5070497;28;20790;-83
2022/08/22 09:43:44;;;;;;;6.82;2.30;;;22.00;91.90;;;;;;5070940;28;20082;-83
2022/08/22 09:46:13;;;;;;;6.43;2.15;;;22.00;91.60;;;;;;5068834;28;20120;-84
2022/08/22 09:48:56;;;;;;;5.97;2.13;;;22.00;91.70;;;;;;5070519;28;20086;-89
2022/08/22 09:51:37;;;;;;;6.53;2.70;;;22.00;92.70;;;;;;5070172;28;20074;-80
2022/08/22 09:54:28;;;;;;;7.53;2.15;;;22.00;91.40;;;;;;5071914;28;20054;-91
2022/08/22 09:57:05;;;;;;;4.53;1.90;;;22.10;91.60;;;;;;5017669;28;20066;-91
2022/08/22 09:59:59;;;;;;;8.80;2.65;;;22.10;91.20;;;;;;5049846;28;20211;-88
2022/08/22 10:02:49;;;;;;;8.50;2.60;;;22.20;93.20;;;;;;5048856;28;20037;-84
2022/08/22 10:05:35;;;;;;;8.85;2.40;;;22.10;95.40;;;;;;5031542;28;20032;-81
2022/08/22 10:08:04;;;;;;;7.75;2.53;;;22.10;93.90;;;;;;5030896;28;20091;-84
2022/08/22 10:10:49;;;;;;;6.47;2.17;;;22.10;92.00;;;;;;5049179;28;20036;-83
2022/08/22 10:13:43;;;;;;;6.63;1.77;;;22.10;91.90;;;;;;5049032;28;20465;-84
2022/08/22 10:16:24;;;;;;;6.85;2.10;;;22.10;90.90;;;;;;5047880;28;20054;-84
2022/08/22 10:19:06;;;;;;;6.07;2.42;;;22.20;90.90;;;;;;5031023;28;20387;-84
2022/08/22 10:22:06;;;;;;;6.20;2.17;;;22.20;92.50;;;;;;5030703;28;20032;-82
2022/08/22 10:24:50;;;;;;;6.68;2.28;;;22.00;94.40;;;;;;5031143;28;20032;-85
2022/08/22 10:27:21;;;;;;;6.60;2.13;;;22.00;95.80;;;;;;5049000;28;20067;-84
2022/08/22 10:30:17;;;;;;;4.93;1.90;;;21.90;94.50;;;;;;5048177;28;20052;-83
2022/08/22 10:33:20;;;;;;;4.35;1.95;;;22.00;92.70;;;;;;5048815;28;20025;-82
2022/08/22 10:35:49;;;;;;;4.57;1.70;;;22.00;93.40;;;;;;5049111;28;20029;-83
2022/08/22 10:38:39;;;;;;;6.18;2.17;;;22.10;91.50;;;;;;5031388;28;20534;-84
2022/08/22 10:41:17;;;;;;;4.93;1.75;;;22.00;93.20;;;;;;5031132;28;20029;-83
2022/08/22 10:43:51;;;;;;;4.18;1.70;;;22.10;91.70;;;;;;5049071;28;20040;-83
2022/08/22 10:46:35;;;;;;;4.85;2.15;;;22.20;91.00;;;;;;5047255;28;20666;-81
2022/08/22 10:49:07;;;;;;;4.72;2.15;;;22.20;90.70;;;;;;5048811;28;20132;-80
2022/08/22 10:52:07;;;;;;;6.57;2.00;;;22.40;89.50;;;;;;5048822;28;20033;-80
2022/08/22 10:54:47;;;;;;;8.15;3.22;;;22.50;89.60;;;;;;5026118;28;20063;-81
2022/08/22 10:57:41;;;;;;;7.00;2.40;;;22.50;89.30;;;;;;5030279;28;20570;-81
2022/08/22 11:00:31;;;;;;;4.85;1.90;;;22.60;88.20;;;;;;5048080;28;20410;-81
2022/08/22 11:03:13;;;;;;;4.10;1.88;;;22.70;86.80;;;;;;5047995;28;20068;-81
2022/08/22 11:05:41;;;;;;;7.50;1.95;;;22.70;88.70;;;;;;5048244;28;20044;-85
2022/08/22 11:08:41;;;;;;;5.57;2.25;;;22.80;86.80;;;;;;5030487;28;20159;-86
2022/08/22 11:11:17;;;;;;;7.75;2.03;;;22.90;85.90;;;;;;5030728;28;20025;-88
2022/08/22 11:13:52;;;;;;;5.43;2.05;;;23.00;85.40;;;;;;5048694;28;20032;-87
2022/08/22 11:16:26;;;;;;;6.97;2.47;;;23.00;85.80;;;;;;5013029;28;20033;-89
2022/08/22 11:19:09;;;;;;;6.18;1.90;;;23.10;85.60;;;;;;5047546;28;20021;-87
2022/08/22 11:22:05;;;;;;;6.03;2.20;;;23.10;85.50;;;;;;5030684;28;20049;-85
2022/08/22 11:25:11;;;;;;;8.27;2.33;;;23.10;86.70;;;;;;4993576;28;20161;-88
2022/08/22 11:27:58;;;;;;;5.60;1.80;;;23.10;85.10;;;;;;5026854;28;20029;-86
2022/08/22 11:30:45;;;;;;;6.68;2.15;;;23.10;87.50;;;;;;5024548;28;20466;-87
2022/08/22 11:33:52;;;;;;;6.00;2.00;;;23.00;88.20;;;;;;5026577;28;20478;-87
2022/08/22 11:36:32;;;;;;;6.15;2.53;;;23.10;87.90;;;;;;5002739;28;20052;-87
2022/08/22 11:39:20;;;;;;;5.72;2.03;;;23.10;86.20;;;;;;5009127;28;20040;-88
2022/08/22 11:42:04;;;;;;;4.73;1.67;;;23.10;86.20;;;;;;5010572;28;20025;-87
2022/08/22 11:44:43;;;;;;;7.57;2.17;;;23.10;87.40;;;;;;5026983;28;20748;-88
2022/08/22 11:47:20;;;;;;;5.47;1.88;;;23.20;86.10;;;;;;5009217;28;20040;-88
2022/08/22 11:50:01;;;;;;;5.78;2.30;;;23.30;84.20;;;;;;4995513;28;20037;-87
2022/08/22 11:52:43;;;;;;;6.15;2.45;;;23.30;85.20;;;;;;4999128;28;20041;-88
2022/08/22 11:55:23;;;;;;;7.65;2.35;;;23.40;84.80;;;;;;5032006;28;20068;-88
2022/08/22 11:57:53;;;;;;;6.05;2.13;;;23.50;82.60;;;;;;4997664;28;20558;-87
2022/08/22 12:00:34;;;;;;;7.72;1.92;;;23.50;83.20;;;;;;5013669;28;20033;-82
2022/08/22 12:03:22;;;;;;;6.75;2.10;;;23.60;83.50;;;;;;5031669;28;20022;-87
2022/08/22 12:06:13;;;;;;;7.57;1.98;;;23.70;83.40;;;;;;5030339;28;20029;-83
2022/08/22 12:08:49;;;;;;;6.03;2.20;;;23.70;82.70;;;;;;5029696;28;20038;-85
2022/08/22 12:11:38;;;;;;;6.45;2.10;;;23.80;82.10;;;;;;5032221;28;20036;-90
2022/08/22 12:14:22;;;;;;;5.75;2.05;;;23.90;84.80;;;;;;5042681;28;20436;-89
2022/08/22 12:17:26;;;;;;;8.02;2.05;;;23.90;82.30;;;;;;5044189;28;20060;-86
2022/08/22 12:20:10;;;;;;;7.03;2.50;;;24.00;81.40;;;;;;5033227;28;20048;-88
2022/08/22 12:22:48;;;;;;;7.10;1.88;;;24.10;80.50;;;;;;5051655;28;20029;-87
2022/08/22 12:25:32;;;;;;;4.27;2.13;;;24.20;79.70;;;;;;5033421;28;20053;-87
2022/08/22 12:28:12;;;;;;;6.43;1.95;;;24.20;79.80;;;;;;5050760;28;20020;-87
2022/08/22 12:31:03;;;;;;;4.57;2.15;;;24.20;80.30;;;;;;5032642;28;20048;-87
2022/08/22 12:33:47;;;;;;;7.53;1.98;;;24.20;84.40;;;;;;5051477;28;20055;-86
2022/08/22 12:36:48;;;;;;;4.32;2.08;;;24.00;81.60;;;;;;5051078;28;20429;-87
2022/08/22 12:39:36;;;;;;;4.85;1.77;;;24.00;80.00;;;;;;5032759;28;20033;-87
2022/08/22 12:42:29;;;;;;;5.38;2.15;;;24.00;81.20;;;;;;5050936;28;20481;-87
2022/08/22 12:45:06;;;;;;;4.93;1.85;;;24.00;81.80;;;;;;5050747;28;20033;-88
2022/08/22 12:48:10;;;;;;;7.22;1.92;;;24.00;84.70;;;;;;5032192;28;20036;-88
2022/08/22 12:50:49;;;;;;;4.13;1.67;;;24.00;81.20;;;;;;5033187;28;20090;-87
2022/08/22 12:53:21;;;;;;;;;;;24.00;80.30;;;;;;5051694;28;20342;-87
2022/08/22 12:56:24;;;;;;;7.28;2.42;;;24.00;79.70;;;;;;5050626;28;20380;-88
2022/08/22 12:59:09;;;;;;;5.93;1.90;;;24.10;80.40;;;;;;5032739;28;20032;-87
2022/08/22 13:01:39;;;;;;;5.75;2.28;;;24.00;83.60;;;;;;5049256;28;20047;-87
2022/08/22 13:04:12;;;;;;;6.80;2.00;;;24.00;85.40;;;;;;5051358;28;20242;-87
2022/08/22 13:06:44;;;;;;;5.28;2.00;;;24.00;82.30;;;;;;5032421;28;20033;-87
2022/08/22 13:09:18;;;;;;;5.13;2.05;;;24.10;80.40;;;;;;5050375;28;20025;-88
2022/08/22 13:11:47;;;;;;;5.53;1.90;;;24.10;81.50;;;;;;5032946;28;20031;-87
2022/08/22 13:14:20;;;;;;;4.78;1.80;;;24.10;80.10;;;;;;5050879;28;20025;-87
2022/08/22 13:16:54;;;;;;;5.55;1.98;;;24.10;81.10;;;;;;5031391;28;20441;-87
2022/08/22 13:19:30;;;;;;;5.97;2.67;;;24.20;79.00;;;;;;5031952;28;20139;-87
2022/08/22 13:22:16;;;;;;;5.88;2.10;;;24.30;79.60;;;;;;5050482;28;20043;-88
2022/08/22 13:24:51;;;;;;;5.32;1.92;;;24.30;81.90;;;;;;5050735;28;20373;-88
2022/08/22 13:27:45;;;;;;;5.05;1.98;;;24.30;78.20;;;;;;5050361;28;20399;-88
2022/08/22 13:30:22;;;;;;;5.43;2.05;;;24.30;79.90;;;;;;5035024;22;20053;-83
2022/08/22 13:32:52;;;;;;;4.70;1.80;;;24.30;82.70;;;;;;5030729;28;20064;-83
2022/08/22 13:35:34;;;;;;;5.78;2.00;;;24.20;86.10;;;;;;5030220;28;20500;-83
2022/08/22 13:38:10;;;;;;;4.82;2.05;;;24.20;85.80;;;;;;5030832;28;20030;-83
2022/08/22 13:40:38;;;;;;;5.10;2.20;;;24.10;84.10;;;;;;5030680;28;20262;-83
2022/08/22 13:43:11;;;;;;;5.10;2.20;;;24.10;85.60;;;;;;5031353;28;20444;-83
2022/08/22 13:45:40;;;;;;;5.72;2.15;;;24.00;86.60;;;;;;5030406;28;20687;-82
2022/08/22 13:48:11;;;;;;;3.70;1.98;;;24.00;87.00;;;;;;5012583;28;20073;-82
2022/08/22 13:51:08;;;;;;;4.30;2.15;;;23.90;86.20;;;;;;5030586;28;20041;-82
2022/08/22 13:53:42;;;;;;;4.50;2.10;;;23.90;83.20;;;;;;5012453;28;20033;-82
2022/08/22 13:56:19;;;;;;;6.13;2.20;;;24.00;82.30;;;;;;5030462;28;20033;-82
2022/08/22 13:58:50;;;;;;;4.82;2.08;;;24.10;81.10;;;;;;5030946;28;20032;-81
2022/08/22 14:01:40;;;;;;;5.32;1.92;;;24.10;81.40;;;;;;5029679;28;20033;-82